CheckWX is a tool to help pilots better visualize weather data.  It is not intended as a substitute for an official pre-flight weather briefing.

17:58:38 UTC

PAVD TAF
Valdez Pioneer Field Airport
Valdez, Alaska, USA
PAVD 171720Z 1718/1818 VRB04KT P6SM SCT070 BKN150 AMD LTD TO CLD VIS AND WIND

Oct-17@
18:00 UTC

Oct-17 @ 18:00 UTC

Oct-18@
18:00 UTC

Oct-18 @ 18:00 UTC

PAVD 171720Z 1718/1818 VRB04KT P6SM SCT070 BKN150 AMD LTD TO CLD VIS AND WIND
Wind
  • Variable at 4 KTS
Cloud Levels
  • Scattered at 7,000' AGL
  • Broken at 15,000' AGL